Glorious Jasmine — 3FHC7 — position and weather

sailwx.info

Track history (hours):
 
Tides and Currents Weather Stations Pressure Air Temp Water Temp Dewpoint Dewpoint Depression Visibility Wind Speed Wind Dir Waves Ship Positions

Glorious Jasmine

Last reported at 2018-May-06 10:43 UTC. Time now 2018-Jun-25 14:04 UTC.
Position N 23°21' E 119°49'.
Warning: this ship's position is 50 days out of date.

Length 209 m; draft 7.6 m.

Type: Cargo ship. MMSI: 373114000.

Date/timePositionNaut miles runAvg speedWind from/ knotsBaromVisibWave heightAir tempDewpointWater temp
2018-May-06 10:43N 23°21' E 119°49'313.4
2018-May-06 10:29N 23°24' E 119°49'613.2
2018-May-06 10:00N 23°31' E 119°49'612.9
2018-May-06 09:30N 23°37' E 119°49'612.6
2018-May-06 09:01N 23°43' E 119°49'611.7
2018-May-06 08:30N 23°49' E 119°49'  
2018-May-03 20:22N 33°60' E 129°44'512.0
2018-May-03 19:58N 34°02' E 129°49'612.1
2018-May-03 19:30N 34°05' E 129°55'612.0
2018-May-03 19:01N 34°08' E 130°01'611.6
2018-May-03 18:31N 34°10' E 130°08'611.7
2018-May-03 18:01N 34°13' E 130°14'611.8
2018-May-03 17:30N 34°16' E 130°20'611.8
2018-May-03 16:59N 34°19' E 130°27'611.8
2018-May-03 16:31N 34°22' E 130°33'611.7
2018-May-03 16:01N 34°25' E 130°39'611.5
2018-May-03 15:30N 34°28' E 130°45'511.1
2018-May-03 15:01N 34°30' E 130°51'611.1
2018-May-03 14:29N 34°33' E 130°57'  
2018-Apr-28 21:27N 35°16' E 130°42'2914.4
2018-Apr-28 19:27N 35°09' E 130°07'614.2
2018-Apr-28 19:00N 35°08' E 129°60'713.8
2018-Apr-28 18:30N 35°07' E 129°51'814.0
2018-Apr-28 17:55N 35°05' E 129°42'614.9
2018-Apr-28 17:30N 35°04' E 129°34'714.8
2018-Apr-28 17:00N 35°03' E 129°25'714.9
2018-Apr-28 16:30N 35°00' E 129°17'814.5
2018-Apr-28 15:59N 34°58' E 129°08'510.3
2018-Apr-28 15:30N 35°01' E 129°03'1 1.7
2018-Apr-28 14:58N 35°02' E 129°03'0 0.2
2018-Apr-28 14:28N 35°02' E 129°03'0 0.0
2018-Apr-28 13:58N 35°02' E 129°03'0 0.0
2018-Apr-28 13:15N 35°02' E 129°03'0 0.0
2018-Apr-28 12:55N 35°02' E 129°03'0 0.0
2018-Apr-28 12:30N 35°02' E 129°03'0 0.0
2018-Apr-28 12:00N 35°02' E 129°03'0 0.1
2018-Apr-28 11:23N 35°02' E 129°03'0 0.0
2018-Apr-28 10:59N 35°02' E 129°03'0 0.0
2018-Apr-28 10:30N 35°02' E 129°03'0 0.0
2018-Apr-28 09:56N 35°02' E 129°03'0 0.0
2018-Apr-28 09:30N 35°02' E 129°03'0 0.0
2018-Apr-28 08:21N 35°02' E 129°03'0 0.0
2018-Apr-28 08:00N 35°02' E 129°03'0 0.0
2018-Apr-28 07:24N 35°02' E 129°03'0 0.0
2018-Apr-28 06:07N 35°02' E 129°03'0 0.0
2018-Apr-28 05:55N 35°02' E 129°03'0 0.4
2018-Apr-28 05:28N 35°02' E 129°03'0 1.0
2018-Apr-28 04:59N 35°01' E 129°03'9 9.0
2018-Apr-28 03:58N 34°52' E 129°04'1914.1
2018-Apr-28 02:39N 34°35' E 128°55'215.0
2018-Apr-28 02:30N 34°33' E 128°54'714.7
2018-Apr-28 02:00N 34°27' E 128°49'2114.5
2018-Apr-28 00:34N 34°08' E 128°39'114.5
2018-Apr-28 00:30N 34°07' E 128°38'714.4
2018-Apr-28 00:00N 34°01' E 128°34'714.4
2018-Apr-27 23:29N 33°54' E 128°30'714.1
2018-Apr-27 23:01N 33°48' E 128°26'714.2
2018-Apr-27 22:30N 33°42' E 128°22'714.3
2018-Apr-27 22:00N 33°35' E 128°18'714.4
2018-Apr-27 21:30N 33°29' E 128°15'714.2
2018-Apr-27 21:00N 33°22' E 128°12'713.8
2018-Apr-27 20:30N 33°16' E 128°08'713.7
2018-Apr-27 19:59N 33°10' E 128°03'  
Track history (hours):
 
Tides and Currents Weather Stations Pressure Air Temp Water Temp Dewpoint Dewpoint Depression Visibility Wind Speed Wind Dir Waves Ship Positions

Glorious Jasmine

Last reported at 2018-May-06 10:43 UTC. Time now 2018-Jun-25 14:04 UTC.
Position N 23°21' E 119°49'.
Warning: this ship's position is 50 days out of date.

Length 209 m; draft 7.6 m.

Type: Cargo ship. MMSI: 373114000.

Date/timePositionNaut miles runAvg speedWind from/ knotsBaromVisibWave heightAir tempDewpointWater temp
2018-May-06 10:43N 23°21' E 119°49'313.4
2018-May-06 10:29N 23°24' E 119°49'613.2
2018-May-06 10:00N 23°31' E 119°49'612.9
2018-May-06 09:30N 23°37' E 119°49'612.6
2018-May-06 09:01N 23°43' E 119°49'611.7
2018-May-06 08:30N 23°49' E 119°49'  
2018-May-03 20:22N 33°60' E 129°44'512.0
2018-May-03 19:58N 34°02' E 129°49'612.1
2018-May-03 19:30N 34°05' E 129°55'612.0
2018-May-03 19:01N 34°08' E 130°01'611.6
2018-May-03 18:31N 34°10' E 130°08'611.7
2018-May-03 18:01N 34°13' E 130°14'611.8
2018-May-03 17:30N 34°16' E 130°20'611.8
2018-May-03 16:59N 34°19' E 130°27'611.8
2018-May-03 16:31N 34°22' E 130°33'611.7
2018-May-03 16:01N 34°25' E 130°39'611.5
2018-May-03 15:30N 34°28' E 130°45'511.1
2018-May-03 15:01N 34°30' E 130°51'611.1
2018-May-03 14:29N 34°33' E 130°57'  
2018-Apr-28 21:27N 35°16' E 130°42'2914.4
2018-Apr-28 19:27N 35°09' E 130°07'614.2
2018-Apr-28 19:00N 35°08' E 129°60'713.8
2018-Apr-28 18:30N 35°07' E 129°51'814.0
2018-Apr-28 17:55N 35°05' E 129°42'614.9
2018-Apr-28 17:30N 35°04' E 129°34'714.8
2018-Apr-28 17:00N 35°03' E 129°25'714.9
2018-Apr-28 16:30N 35°00' E 129°17'814.5
2018-Apr-28 15:59N 34°58' E 129°08'510.3
2018-Apr-28 15:30N 35°01' E 129°03'1 1.7
2018-Apr-28 14:58N 35°02' E 129°03'0 0.2
2018-Apr-28 14:28N 35°02' E 129°03'0 0.0
2018-Apr-28 13:58N 35°02' E 129°03'0 0.0
2018-Apr-28 13:15N 35°02' E 129°03'0 0.0
2018-Apr-28 12:55N 35°02' E 129°03'0 0.0
2018-Apr-28 12:30N 35°02' E 129°03'0 0.0
2018-Apr-28 12:00N 35°02' E 129°03'0 0.1
2018-Apr-28 11:23N 35°02' E 129°03'0 0.0
2018-Apr-28 10:59N 35°02' E 129°03'0 0.0
2018-Apr-28 10:30N 35°02' E 129°03'0 0.0
2018-Apr-28 09:56N 35°02' E 129°03'0 0.0
2018-Apr-28 09:30N 35°02' E 129°03'0 0.0
2018-Apr-28 08:21N 35°02' E 129°03'0 0.0
2018-Apr-28 08:00N 35°02' E 129°03'0 0.0
2018-Apr-28 07:24N 35°02' E 129°03'0 0.0
2018-Apr-28 06:07N 35°02' E 129°03'0 0.0
2018-Apr-28 05:55N 35°02' E 129°03'0 0.4
2018-Apr-28 05:28N 35°02' E 129°03'0 1.0
2018-Apr-28 04:59N 35°01' E 129°03'9 9.0
2018-Apr-28 03:58N 34°52' E 129°04'1914.1
2018-Apr-28 02:39N 34°35' E 128°55'215.0
2018-Apr-28 02:30N 34°33' E 128°54'714.7
2018-Apr-28 02:00N 34°27' E 128°49'2114.5
2018-Apr-28 00:34N 34°08' E 128°39'114.5
2018-Apr-28 00:30N 34°07' E 128°38'714.4
2018-Apr-28 00:00N 34°01' E 128°34'714.4
2018-Apr-27 23:29N 33°54' E 128°30'714.1
2018-Apr-27 23:01N 33°48' E 128°26'714.2
2018-Apr-27 22:30N 33°42' E 128°22'714.3
2018-Apr-27 22:00N 33°35' E 128°18'714.4
2018-Apr-27 21:30N 33°29' E 128°15'714.2
2018-Apr-27 21:00N 33°22' E 128°12'713.8
2018-Apr-27 20:30N 33°16' E 128°08'713.7
2018-Apr-27 19:59N 33°10' E 128°03'  

Dump ship's entire track history